Time;durP1;ratioP1;P1;durP2;ratioP2;P2;SDS_P1;SDS_P2;PMS_P1;PMS_P2;Temp;Humidity;BMP_temperature;BMP_pressure;BME280_temperature;BME280_humidity;BME280_pressure;Samples;Min_cycle;Max_cycle;Signal;HPM_P1;HPM_P2
2022/05/31 00:00:18;;;;;;;1.20;1.20;;;19.40;82.00;;;;;;5068623;28;20608;-72
2022/05/31 00:02:44;;;;;;;1.30;1.25;;;19.40;82.10;;;;;;5066858;28;20222;-72
2022/05/31 00:05:11;;;;;;;1.60;1.40;;;19.40;82.10;;;;;;5063047;28;20186;-71
2022/05/31 00:07:39;;;;;;;3.10;1.13;;;19.40;82.10;;;;;;5067245;28;21829;-71
2022/05/31 00:10:07;;;;;;;1.40;1.27;;;19.30;82.00;;;;;;5064553;28;20183;-71
2022/05/31 00:12:33;;;;;;;1.08;1.05;;;19.30;81.90;;;;;;5067169;28;20187;-72
2022/05/31 00:15:00;;;;;;;1.13;1.13;;;19.30;81.70;;;;;;5068797;28;20209;-72
2022/05/31 00:17:26;;;;;;;1.40;1.40;;;19.30;82.50;;;;;;5076806;28;20565;-71
2022/05/31 00:19:52;;;;;;;1.67;1.52;;;19.20;82.10;;;;;;5071064;28;20187;-72
2022/05/31 00:22:21;;;;;;;1.08;1.08;;;19.20;81.80;;;;;;5070751;28;20272;-70
2022/05/31 00:24:47;;;;;;;1.48;1.40;;;19.20;82.10;;;;;;5071591;28;20191;-71
2022/05/31 00:27:16;;;;;;;1.52;1.40;;;19.20;82.50;;;;;;5067805;28;20668;-70
2022/05/31 00:29:41;;;;;;;8.75;1.25;;;19.20;83.10;;;;;;5070705;28;20214;-72
2022/05/31 00:32:11;;;;;;;1.45;1.45;;;19.20;83.40;;;;;;5070618;28;20198;-71
2022/05/31 00:34:40;;;;;;;1.55;1.55;;;19.10;83.20;;;;;;5069786;28;20247;-71
2022/05/31 00:37:07;;;;;;;1.13;1.13;;;19.00;83.60;;;;;;5055628;28;20179;-71
2022/05/31 00:39:33;;;;;;;2.50;1.48;;;19.00;83.80;;;;;;5094502;28;20179;-71
2022/05/31 00:42:10;;;;;;;1.77;1.67;;;18.90;84.40;;;;;;5072308;28;20234;-71
2022/05/31 00:44:36;;;;;;;1.35;1.35;;;18.80;83.50;;;;;;5053898;28;20194;-71
2022/05/31 00:47:13;;;;;;;1.00;1.00;;;18.90;83.60;;;;;;5069078;28;20183;-71
2022/05/31 00:49:48;;;;;;;2.92;1.23;;;18.90;83.80;;;;;;5070245;28;20192;-71
2022/05/31 00:52:23;;;;;;;1.58;1.35;;;18.90;83.50;;;;;;5065744;28;20730;-71
2022/05/31 00:55:17;;;;;;;15.70;1.70;;;18.90;83.10;;;;;;5071962;28;20228;-71
2022/05/31 00:57:49;;;;;;;1.25;1.25;;;18.90;82.80;;;;;;5080008;28;20276;-71
2022/05/31 01:00:16;;;;;;;4.00;1.20;;;19.00;83.60;;;;;;5079793;28;20201;-70
2022/05/31 01:02:45;;;;;;;1.73;1.70;;;19.00;84.10;;;;;;5065368;28;20833;-71
2022/05/31 01:05:13;;;;;;;1.23;1.20;;;19.00;83.50;;;;;;5079737;28;20230;-71
2022/05/31 01:07:39;;;;;;;1.23;1.23;;;19.00;83.60;;;;;;5081468;28;20297;-71
2022/05/31 01:10:08;;;;;;;1.15;1.15;;;19.00;83.60;;;;;;5081098;28;20186;-71
2022/05/31 01:12:34;;;;;;;2.08;1.45;;;19.00;83.70;;;;;;5081367;28;20193;-71
2022/05/31 01:15:00;;;;;;;1.23;1.13;;;18.90;83.20;;;;;;5078300;28;20199;-71
2022/05/31 01:17:27;;;;;;;1.73;1.60;;;18.90;83.00;;;;;;5078783;28;20182;-72
2022/05/31 01:19:56;;;;;;;3.90;1.35;;;18.90;82.60;;;;;;5080005;28;20197;-71
2022/05/31 01:22:40;;;;;;;1.63;1.30;;;18.90;82.90;;;;;;5082634;28;20224;-72
2022/05/31 01:25:21;;;;;;;4.72;1.30;;;18.90;82.60;;;;;;5080454;28;20696;-72
2022/05/31 01:28:11;;;;;;;1.20;1.20;;;18.90;82.10;;;;;;5080555;28;20223;-71
2022/05/31 01:31:10;;;;;;;6.35;1.20;;;18.80;82.00;;;;;;5076929;28;20186;-72
2022/05/31 01:33:57;;;;;;;0.98;0.98;;;18.80;81.80;;;;;;5078817;28;20191;-71
2022/05/31 01:36:31;;;;;;;1.55;1.45;;;18.80;81.90;;;;;;5074364;28;20178;-71
2022/05/31 01:39:04;;;;;;;1.20;1.20;;;18.90;83.00;;;;;;5063746;28;20187;-71
2022/05/31 01:41:38;;;;;;;1.50;1.40;;;18.90;83.40;;;;;;5068915;28;20202;-71
2022/05/31 01:44:16;;;;;;;3.42;1.48;;;18.80;83.40;;;;;;5069873;28;20729;-71
2022/05/31 01:46:43;;;;;;;1.65;1.55;;;18.80;84.00;;;;;;5070521;28;20188;-71
2022/05/31 01:49:12;;;;;;;1.85;1.75;;;18.80;84.40;;;;;;5060161;28;20193;-73
2022/05/31 01:51:40;;;;;;;1.50;1.40;;;18.80;84.60;;;;;;5072381;28;20190;-72
2022/05/31 01:54:08;;;;;;;4.20;1.58;;;18.80;84.40;;;;;;5064635;28;20190;-73
2022/05/31 01:56:35;;;;;;;0.90;0.90;;;18.70;83.50;;;;;;5066447;28;20583;-73
2022/05/31 01:59:03;;;;;;;1.35;1.35;;;18.60;83.20;;;;;;5069802;28;20274;-72
2022/05/31 02:01:31;;;;;;;1.50;1.40;;;18.60;83.50;;;;;;5072344;28;20175;-72
2022/05/31 02:03:58;;;;;;;1.80;1.52;;;18.60;84.90;;;;;;5075652;28;20276;-72
2022/05/31 02:06:34;;;;;;;2.45;2.03;;;18.60;84.80;;;;;;5070005;28;20234;-72
2022/05/31 02:09:01;;;;;;;1.70;1.60;;;18.60;83.90;;;;;;5069441;28;20208;-70
2022/05/31 02:11:27;;;;;;;1.45;1.42;;;18.50;83.90;;;;;;5072361;28;20174;-71
2022/05/31 02:13:53;;;;;;;1.58;1.58;;;18.50;83.60;;;;;;5072147;28;20186;-71
2022/05/31 02:16:19;;;;;;;1.40;1.40;;;18.50;83.60;;;;;;5072236;28;20197;-71
2022/05/31 02:21:35;;;;;;;1.63;1.55;;;18.40;83.70;;;;;;5071089;28;20758;-73
2022/05/31 02:24:03;;;;;;;1.60;1.50;;;18.40;84.10;;;;;;5066972;28;20218;-72
2022/05/31 02:26:29;;;;;;;1.52;1.40;;;18.40;83.80;;;;;;5069961;28;20723;-73
2022/05/31 02:28:55;;;;;;;1.35;1.33;;;18.40;84.40;;;;;;5064611;28;20182;-72
2022/05/31 02:31:20;;;;;;;1.55;1.40;;;18.40;85.00;;;;;;5068988;28;20187;-72
2022/05/31 02:33:46;;;;;;;1.85;1.70;;;18.40;84.70;;;;;;5089851;28;20634;-72
2022/05/31 02:36:12;;;;;;;1.98;1.63;;;18.40;84.50;;;;;;5071668;28;20268;-73
2022/05/31 02:38:37;;;;;;;1.55;1.50;;;18.30;84.60;;;;;;5070296;28;20246;-71
2022/05/31 02:41:03;;;;;;;1.02;1.02;;;18.30;84.70;;;;;;5071138;28;20198;-72
2022/05/31 02:43:28;;;;;;;2.00;1.90;;;18.30;85.50;;;;;;5075448;28;20206;-72
2022/05/31 02:45:54;;;;;;;1.10;1.10;;;18.30;84.90;;;;;;5072906;28;21003;-72
2022/05/31 02:48:20;;;;;;;1.38;1.38;;;18.30;84.90;;;;;;5068519;28;20267;-71
2022/05/31 02:50:45;;;;;;;3.25;1.70;;;18.20;85.00;;;;;;5073307;28;20266;-72
2022/05/31 02:53:11;;;;;;;1.42;1.42;;;18.20;85.20;;;;;;5069592;28;20278;-72
2022/05/31 02:55:37;;;;;;;1.85;1.55;;;18.20;85.00;;;;;;5067956;28;20183;-72
2022/05/31 02:58:02;;;;;;;1.92;1.83;;;18.10;84.80;;;;;;5075255;28;20720;-72
2022/05/31 03:00:28;;;;;;;1.95;1.85;;;18.10;85.40;;;;;;5067698;28;20244;-72
2022/05/31 03:02:54;;;;;;;2.03;1.92;;;18.10;84.80;;;;;;5071521;28;20233;-73
2022/05/31 03:05:19;;;;;;;3.78;2.15;;;18.10;85.40;;;;;;5067850;28;20190;-72
2022/05/31 03:07:45;;;;;;;1.25;1.25;;;18.10;86.60;;;;;;5067160;28;20266;-71
2022/05/31 03:10:11;;;;;;;2.78;1.70;;;18.10;86.10;;;;;;5063206;28;20277;-72
2022/05/31 03:12:37;;;;;;;1.55;1.45;;;18.00;85.30;;;;;;5064801;28;20190;-73
2022/05/31 03:15:13;;;;;;;1.80;1.65;;;18.00;85.70;;;;;;5065973;28;20198;-72
2022/05/31 03:17:47;;;;;;;1.77;1.60;;;18.00;85.50;;;;;;5068204;28;20653;-72
2022/05/31 03:20:22;;;;;;;1.77;1.67;;;18.00;85.70;;;;;;5066938;28;20185;-71
2022/05/31 03:23:03;;;;;;;1.77;1.65;;;18.00;85.40;;;;;;5067165;28;20202;-71
2022/05/31 03:25:30;;;;;;;2.10;2.00;;;18.00;86.20;;;;;;5074264;28;20228;-71
2022/05/31 03:28:00;;;;;;;2.47;2.03;;;18.00;87.00;;;;;;5067482;28;20187;-71
2022/05/31 03:30:26;;;;;;;2.15;1.95;;;18.00;86.90;;;;;;5065550;28;20192;-72
2022/05/31 03:32:55;;;;;;;1.70;1.67;;;18.00;86.70;;;;;;5074183;28;20194;-71
2022/05/31 03:35:21;;;;;;;1.58;1.48;;;18.00;86.80;;;;;;5073521;28;20189;-72
2022/05/31 03:37:46;;;;;;;1.67;1.67;;;18.00;86.60;;;;;;5066792;28;20179;-72
2022/05/31 03:40:56;;;;;;;1.98;1.85;;;18.00;87.00;;;;;;5069547;28;20179;-72
2022/05/31 03:43:03;;;;;;;3.03;2.30;;;18.00;87.00;;;;;;5065357;28;20221;-72
2022/05/31 03:45:34;;;;;;;3.92;2.30;;;18.00;87.20;;;;;;5063562;28;20620;-72
2022/05/31 03:48:00;;;;;;;2.13;2.03;;;17.90;87.10;;;;;;5062444;28;20196;-72
2022/05/31 03:50:26;;;;;;;2.05;1.90;;;17.90;87.00;;;;;;5063535;28;20182;-72
2022/05/31 03:52:52;;;;;;;1.98;1.88;;;17.90;87.40;;;;;;5064464;28;20681;-72
2022/05/31 03:55:17;;;;;;;2.20;1.80;;;17.90;87.00;;;;;;5072640;28;20190;-72
2022/05/31 03:57:45;;;;;;;2.08;1.98;;;17.90;86.80;;;;;;5064587;28;20198;-72
2022/05/31 04:00:12;;;;;;;2.58;2.30;;;17.90;87.10;;;;;;5079873;28;20252;-71
2022/05/31 04:02:37;;;;;;;1.85;1.75;;;17.90;86.60;;;;;;5070311;28;20242;-72
2022/05/31 04:05:03;;;;;;;1.73;1.63;;;17.90;86.40;;;;;;5072523;28;20647;-72
2022/05/31 04:07:29;;;;;;;1.90;1.50;;;17.90;86.80;;;;;;5076728;28;20281;-71
2022/05/31 04:09:54;;;;;;;2.10;2.00;;;17.90;85.80;;;;;;5072210;28;20182;-70
2022/05/31 04:12:20;;;;;;;1.65;1.55;;;17.90;86.30;;;;;;5075217;28;20209;-74
2022/05/31 04:14:46;;;;;;;2.15;2.00;;;17.90;86.30;;;;;;5072911;28;20199;-73
2022/05/31 04:17:11;;;;;;;2.15;2.05;;;18.00;85.90;;;;;;5074907;28;20189;-73
2022/05/31 04:19:37;;;;;;;2.35;2.22;;;18.00;84.90;;;;;;5074490;28;20215;-73
2022/05/31 04:22:03;;;;;;;2.03;2.00;;;18.00;85.20;;;;;;5074216;28;20179;-72
2022/05/31 04:24:29;;;;;;;2.20;2.08;;;18.00;84.70;;;;;;5076731;28;20270;-72
2022/05/31 04:26:55;;;;;;;3.63;2.22;;;18.00;84.60;;;;;;5074998;28;20182;-73
2022/05/31 04:29:20;;;;;;;4.90;2.58;;;18.10;84.60;;;;;;5067521;28;20182;-74
2022/05/31 04:31:48;;;;;;;2.65;2.55;;;18.10;86.70;;;;;;5078116;28;20182;-74
2022/05/31 04:34:14;;;;;;;2.40;2.33;;;18.20;87.10;;;;;;5055506;28;20565;-73
2022/05/31 04:36:40;;;;;;;2.70;2.45;;;18.20;86.50;;;;;;5064937;28;20182;-73
2022/05/31 04:39:07;;;;;;;2.80;2.70;;;18.20;85.80;;;;;;5071713;28;20554;-74
2022/05/31 04:41:33;;;;;;;5.00;3.00;;;18.30;87.10;;;;;;5054705;28;20240;-74
2022/05/31 04:44:00;;;;;;;3.08;2.47;;;18.30;87.40;;;;;;5068448;28;20221;-74
2022/05/31 04:46:29;;;;;;;3.60;2.55;;;18.40;87.80;;;;;;5063160;28;20285;-73
2022/05/31 04:48:56;;;;;;;3.15;3.00;;;18.30;87.50;;;;;;5068129;28;20191;-74
2022/05/31 04:51:22;;;;;;;2.65;2.40;;;18.30;87.60;;;;;;5069044;28;20213;-73
2022/05/31 04:53:48;;;;;;;3.40;2.85;;;18.40;87.80;;;;;;5071020;28;20187;-74
2022/05/31 04:56:19;;;;;;;2.53;2.42;;;18.30;87.80;;;;;;5061039;28;20186;-73
2022/05/31 04:58:54;;;;;;;3.33;2.85;;;18.40;87.60;;;;;;5057663;28;20187;-74
2022/05/31 05:01:21;;;;;;;6.47;3.00;;;18.40;87.30;;;;;;5067936;28;20576;-74
2022/05/31 05:03:47;;;;;;;2.75;2.67;;;18.40;87.20;;;;;;5066995;28;20286;-77
2022/05/31 05:06:15;;;;;;;2.88;2.67;;;18.40;87.50;;;;;;5072023;28;20202;-73
2022/05/31 05:08:41;;;;;;;2.33;2.22;;;18.40;87.10;;;;;;5071000;28;20189;-73
2022/05/31 05:11:10;;;;;;;2.70;2.22;;;18.50;87.00;;;;;;5057751;28;20280;-72
2022/05/31 05:13:37;;;;;;;2.45;2.35;;;18.50;86.70;;;;;;5063558;28;20192;-72
2022/05/31 05:16:03;;;;;;;2.60;2.40;;;18.50;86.60;;;;;;5068134;28;20194;-72
2022/05/31 05:18:32;;;;;;;2.10;2.10;;;18.60;86.40;;;;;;5069438;28;20179;-72
2022/05/31 05:21:04;;;;;;;2.92;2.25;;;18.60;87.00;;;;;;5054871;28;20186;-74
2022/05/31 05:23:30;;;;;;;1.67;1.67;;;18.70;86.60;;;;;;5068482;28;20207;-73
2022/05/31 05:25:57;;;;;;;2.47;2.33;;;18.70;86.50;;;;;;5072401;28;20273;-73
2022/05/31 05:31:30;;;;;;;2.38;2.17;;;18.80;86.30;;;;;;5068001;28;20278;-73
2022/05/31 05:33:58;;;;;;;2.45;2.25;;;18.90;86.30;;;;;;5053131;28;20214;-72
2022/05/31 05:36:24;;;;;;;2.35;2.28;;;18.90;86.80;;;;;;5070011;28;20262;-74
2022/05/31 05:38:51;;;;;;;3.05;2.85;;;19.00;86.40;;;;;;5055349;28;20191;-73
2022/05/31 05:41:17;;;;;;;2.72;2.53;;;19.00;86.40;;;;;;5064809;28;20625;-73
2022/05/31 05:43:43;;;;;;;3.17;2.97;;;19.10;86.70;;;;;;5065277;28;20238;-73
2022/05/31 05:46:16;;;;;;;3.45;3.25;;;19.20;86.50;;;;;;5073116;28;20198;-73
2022/05/31 05:48:43;;;;;;;2.97;2.85;;;19.20;86.30;;;;;;5067595;28;20192;-73
2022/05/31 05:51:16;;;;;;;4.63;2.70;;;19.30;86.40;;;;;;5068435;28;20566;-74
2022/05/31 05:53:41;;;;;;;3.63;2.90;;;19.30;85.40;;;;;;5072976;28;20179;-73
2022/05/31 05:56:08;;;;;;;2.78;2.58;;;19.30;86.10;;;;;;5061080;28;20233;-72
2022/05/31 05:58:35;;;;;;;3.83;3.35;;;19.40;86.20;;;;;;5061030;28;20179;-72
2022/05/31 06:01:01;;;;;;;2.80;2.70;;;19.50;86.10;;;;;;5059169;28;20234;-72
2022/05/31 06:03:59;;;;;;;6.22;2.67;;;19.50;85.90;;;;;;5058646;28;20723;-71
2022/05/31 06:06:30;;;;;;;4.07;2.90;;;19.60;85.60;;;;;;5060894;28;20198;-73
2022/05/31 06:09:08;;;;;;;3.55;2.83;;;19.60;85.70;;;;;;5065266;28;20218;-73
2022/05/31 06:11:42;;;;;;;2.65;2.55;;;19.60;84.80;;;;;;5085950;28;20206;-73
2022/05/31 06:14:20;;;;;;;4.63;3.33;;;19.70;85.20;;;;;;5059488;28;20211;-72
2022/05/31 06:17:00;;;;;;;3.40;3.20;;;19.70;84.70;;;;;;5061051;28;20270;-73
2022/05/31 06:19:35;;;;;;;3.58;2.97;;;19.80;85.00;;;;;;5065012;28;20236;-73
2022/05/31 06:22:03;;;;;;;3.80;3.60;;;19.90;85.50;;;;;;5059678;28;20197;-72
2022/05/31 06:24:30;;;;;;;4.10;2.70;;;19.90;85.00;;;;;;5053526;28;20609;-73
2022/05/31 06:26:56;;;;;;;3.67;3.47;;;20.00;84.90;;;;;;5064014;28;20675;-73
2022/05/31 06:29:22;;;;;;;4.53;4.20;;;20.00;85.20;;;;;;5063280;28;20183;-72
2022/05/31 06:31:48;;;;;;;3.08;2.90;;;20.10;85.20;;;;;;5066387;28;20257;-72
2022/05/31 06:34:13;;;;;;;4.72;3.28;;;20.20;85.10;;;;;;5062301;28;20190;-72
2022/05/31 06:36:42;;;;;;;4.03;3.65;;;20.20;85.00;;;;;;5064654;28;20688;-72
2022/05/31 06:39:08;;;;;;;5.70;4.10;;;20.30;84.70;;;;;;5058365;28;20645;-72
2022/05/31 06:41:35;;;;;;;5.82;4.05;;;20.40;84.50;;;;;;5068364;28;20193;-73
2022/05/31 06:44:01;;;;;;;4.00;3.70;;;20.40;84.20;;;;;;5064235;28;21167;-73
2022/05/31 06:46:27;;;;;;;5.88;2.90;;;20.50;84.30;;;;;;5062723;28;20320;-73
2022/05/31 06:48:53;;;;;;;3.53;3.33;;;20.50;84.20;;;;;;5059885;28;20183;-72
2022/05/31 06:56:56;;;;;;;3.45;3.20;;;20.80;84.10;;;;;;5067798;28;20594;-73
2022/05/31 06:59:22;;;;;;;3.53;3.17;;;20.80;83.80;;;;;;5067302;28;20243;-72
2022/05/31 07:01:48;;;;;;;3.55;3.42;;;20.90;83.50;;;;;;5060372;28;20179;-71
2022/05/31 07:04:15;;;;;;;3.03;2.90;;;21.00;83.30;;;;;;5059377;28;20219;-72
2022/05/31 07:06:41;;;;;;;3.85;3.55;;;21.10;83.10;;;;;;5061528;28;20198;-73
2022/05/31 07:09:06;;;;;;;5.15;3.88;;;21.10;82.80;;;;;;5061138;28;20179;-73
2022/05/31 07:11:32;;;;;;;4.28;3.85;;;21.20;82.60;;;;;;5059399;28;20191;-72
2022/05/31 07:14:00;;;;;;;5.05;3.72;;;21.30;82.30;;;;;;5058412;28;20679;-72
2022/05/31 07:16:26;;;;;;;3.60;3.30;;;21.30;82.10;;;;;;5060203;28;20207;-73
2022/05/31 07:18:52;;;;;;;4.28;3.42;;;21.30;82.10;;;;;;5059396;28;20187;-72
2022/05/31 07:21:18;;;;;;;3.40;3.20;;;21.40;82.10;;;;;;5059202;28;20187;-73
2022/05/31 07:23:44;;;;;;;3.65;3.35;;;21.40;82.20;;;;;;5061724;28;20219;-73
2022/05/31 07:26:12;;;;;;;2.78;2.67;;;21.50;82.10;;;;;;5062977;28;20190;-72
2022/05/31 07:28:37;;;;;;;6.03;2.72;;;21.60;82.00;;;;;;5059625;28;20185;-72
2022/05/31 07:31:03;;;;;;;3.25;2.90;;;21.60;81.70;;;;;;5061380;28;20175;-72
2022/05/31 07:33:29;;;;;;;3.60;3.30;;;21.70;81.90;;;;;;5062491;28;20179;-72
2022/05/31 07:35:55;;;;;;;5.75;4.30;;;21.80;81.50;;;;;;5061651;28;20181;-72
2022/05/31 07:38:22;;;;;;;8.70;3.72;;;21.80;81.00;;;;;;5063161;28;20194;-74
2022/05/31 07:40:49;;;;;;;6.25;3.22;;;21.90;80.50;;;;;;5087648;28;20653;-72
2022/05/31 07:43:16;;;;;;;3.28;3.03;;;21.90;80.80;;;;;;5059135;28;20294;-72
2022/05/31 07:45:41;;;;;;;3.28;3.08;;;22.00;80.80;;;;;;5063043;28;20259;-73
2022/05/31 07:48:08;;;;;;;3.28;3.00;;;22.00;80.40;;;;;;5059456;28;20191;-71
2022/05/31 07:50:34;;;;;;;3.70;2.72;;;22.10;80.70;;;;;;5067396;28;20637;-72
2022/05/31 07:53:01;;;;;;;3.05;2.85;;;22.20;80.80;;;;;;5058708;28;20187;-72
2022/05/31 07:55:31;;;;;;;5.05;2.80;;;22.20;80.30;;;;;;5058715;28;20940;-72
2022/05/31 08:00:41;;;;;;;3.65;2.72;;;22.40;80.10;;;;;;5059339;28;20201;-73
2022/05/31 08:03:08;;;;;;;3.92;3.25;;;22.50;79.30;;;;;;5059109;28;20207;-72
2022/05/31 08:05:37;;;;;;;2.78;2.58;;;22.60;79.60;;;;;;5066465;28;20181;-73
2022/05/31 08:08:04;;;;;;;3.15;2.88;;;22.70;79.10;;;;;;5060138;28;20630;-72
2022/05/31 08:10:29;;;;;;;3.13;2.60;;;22.80;78.50;;;;;;5059644;28;20190;-72
2022/05/31 08:12:55;;;;;;;2.45;2.22;;;22.90;77.70;;;;;;5064374;28;20187;-72
2022/05/31 08:15:21;;;;;;;2.10;2.10;;;22.90;78.30;;;;;;5064040;28;20695;-72
2022/05/31 08:17:47;;;;;;;2.67;2.40;;;23.00;78.30;;;;;;5058556;28;20183;-72
2022/05/31 08:20:16;;;;;;;1.70;1.60;;;23.00;78.50;;;;;;5059306;28;20232;-72
2022/05/31 08:22:43;;;;;;;3.00;2.35;;;23.10;78.20;;;;;;5058392;28;20215;-73
2022/05/31 08:25:10;;;;;;;3.65;2.13;;;23.30;76.50;;;;;;5086605;28;20220;-72
2022/05/31 08:27:36;;;;;;;3.63;2.45;;;23.40;76.50;;;;;;5064527;28;20297;-72
2022/05/31 08:30:04;;;;;;;2.78;2.58;;;23.40;76.00;;;;;;5058335;28;20179;-72
2022/05/31 08:32:30;;;;;;;3.72;2.17;;;23.50;76.00;;;;;;5059047;28;20527;-72
2022/05/31 08:34:56;;;;;;;2.53;2.30;;;23.50;76.90;;;;;;5062852;28;20210;-73
2022/05/31 08:37:22;;;;;;;4.35;2.85;;;23.60;76.60;;;;;;5059529;28;20256;-72
2022/05/31 08:39:48;;;;;;;2.58;2.35;;;23.70;76.40;;;;;;5060442;28;20186;-74
2022/05/31 08:42:18;;;;;;;3.58;2.38;;;23.80;76.90;;;;;;5065998;28;20186;-72
2022/05/31 08:45:00;;;;;;;5.32;2.33;;;23.90;76.60;;;;;;5060798;28;20649;-71
2022/05/31 08:47:44;;;;;;;2.25;2.10;;;24.00;74.20;;;;;;5090300;28;20183;-73
2022/05/31 08:53:33;;;;;;;3.33;2.38;;;24.10;75.30;;;;;;5060518;28;20217;-72
2022/05/31 08:58:55;;;;;;;5.20;1.70;;;24.30;75.50;;;;;;5067903;28;20198;-72
2022/05/31 09:01:26;;;;;;;2.28;2.17;;;24.40;72.10;;;;;;5090663;28;20205;-72
2022/05/31 09:03:56;;;;;;;5.35;1.73;;;24.50;72.20;;;;;;5061724;28;20218;-73
2022/05/31 09:06:28;;;;;;;1.40;1.40;;;24.60;73.30;;;;;;5067818;28;20408;-72
2022/05/31 09:09:15;;;;;;;2.30;2.13;;;24.70;74.00;;;;;;5061316;28;20190;-73
2022/05/31 09:12:03;;;;;;;1.73;1.73;;;24.80;74.00;;;;;;5063879;28;20175;-73
2022/05/31 09:14:53;;;;;;;2.20;1.90;;;24.90;73.20;;;;;;5056817;28;20190;-72
2022/05/31 09:17:47;;;;;;;2.08;1.63;;;25.10;70.70;;;;;;5064589;28;20612;-73
2022/05/31 09:20:25;;;;;;;2.03;1.98;;;25.30;70.20;;;;;;5021174;28;20202;-73
2022/05/31 09:22:50;;;;;;;2.40;2.25;;;25.40;69.80;;;;;;5021229;28;20223;-73
2022/05/31 09:25:16;;;;;;;3.53;2.20;;;25.50;70.40;;;;;;5020824;28;20197;-74
2022/05/31 09:27:50;;;;;;;1.80;1.77;;;25.50;70.60;;;;;;5021367;28;20870;-73
2022/05/31 09:30:29;;;;;;;1.85;1.85;;;25.60;71.50;;;;;;5004745;28;20180;-74
2022/05/31 09:33:07;;;;;;;1.88;1.60;;;25.70;70.20;;;;;;5022462;28;20180;-73
2022/05/31 09:36:03;;;;;;;2.08;1.98;;;25.90;71.30;;;;;;5024544;28;20179;-73
2022/05/31 09:38:40;;;;;;;2.38;2.20;;;26.00;71.30;;;;;;5023422;28;20189;-73
2022/05/31 09:41:39;;;;;;;1.80;1.70;;;26.10;71.30;;;;;;5021687;28;20685;-74
2022/05/31 09:44:09;;;;;;;2.00;1.90;;;26.30;71.10;;;;;;5024403;28;20234;-73
2022/05/31 09:46:41;;;;;;;3.90;2.35;;;26.50;68.90;;;;;;5021192;28;20227;-74
2022/05/31 09:49:36;;;;;;;5.75;1.80;;;26.60;68.50;;;;;;5019576;28;20514;-73
2022/05/31 09:52:07;;;;;;;2.05;1.85;;;26.80;66.70;;;;;;5018460;28;20195;-73
2022/05/31 09:58:07;;;;;;;2.40;2.15;;;27.00;67.00;;;;;;5055012;28;20369;-73
2022/05/31 10:00:35;;;;;;;1.80;1.70;;;27.30;67.00;;;;;;5059723;28;20535;-73
2022/05/31 10:03:08;;;;;;;2.80;1.80;;;27.40;65.50;;;;;;5063047;28;20215;-73
2022/05/31 10:05:34;;;;;;;1.67;1.58;;;27.60;63.80;;;;;;5068296;28;20722;-73
2022/05/31 10:08:01;;;;;;;1.77;1.77;;;27.70;63.60;;;;;;5065442;28;20183;-72
2022/05/31 10:10:35;;;;;;;2.45;2.10;;;27.90;62.80;;;;;;5052355;28;20179;-72
2022/05/31 10:13:06;;;;;;;3.35;2.08;;;28.10;63.30;;;;;;5057738;28;20186;-72
2022/05/31 10:15:51;;;;;;;2.10;2.00;;;28.30;63.40;;;;;;5060631;28;20182;-72
2022/05/31 10:18:31;;;;;;;3.10;2.50;;;28.60;62.40;;;;;;5058433;28;20186;-74
2022/05/31 10:20:58;;;;;;;2.67;2.33;;;28.90;62.40;;;;;;5080413;28;20206;-74
2022/05/31 10:23:41;;;;;;;8.35;2.30;;;29.20;62.10;;;;;;5056543;28;20254;-73
2022/05/31 10:26:07;;;;;;;2.47;2.38;;;29.40;62.20;;;;;;5079347;28;20582;-74
2022/05/31 10:28:40;;;;;;;4.63;2.20;;;29.80;60.50;;;;;;5058548;28;20179;-74
2022/05/31 10:31:33;;;;;;;3.45;1.85;;;30.10;59.50;;;;;;5058394;28;20588;-75
2022/05/31 10:34:01;;;;;;;2.45;2.20;;;30.70;59.30;;;;;;5059507;28;20182;-74
2022/05/31 10:36:30;;;;;;;1.80;1.80;;;31.20;58.10;;;;;;5063019;28;20677;-74
2022/05/31 10:39:07;;;;;;;4.35;2.30;;;31.70;57.40;;;;;;5061509;28;20178;-74
2022/05/31 10:41:35;;;;;;;1.80;1.80;;;32.20;56.60;;;;;;5081987;28;20586;-74
2022/05/31 10:44:10;;;;;;;1.90;1.88;;;32.40;56.70;;;;;;5061900;28;20222;-74
2022/05/31 10:46:38;;;;;;;5.45;1.58;;;32.90;55.40;;;;;;5054780;28;20288;-74
2022/05/31 10:49:14;;;;;;;2.47;1.63;;;33.50;55.50;;;;;;5056947;28;20212;-73
2022/05/31 10:51:56;;;;;;;2.03;1.80;;;34.00;57.20;;;;;;5058859;28;20198;-73
2022/05/31 10:54:43;;;;;;;7.35;2.00;;;34.60;53.20;;;;;;5058567;28;20587;-74
2022/05/31 10:57:08;;;;;;;1.83;1.73;;;35.00;54.00;;;;;;5062297;28;20210;-74
2022/05/31 10:59:52;;;;;;;2.03;1.65;;;35.40;53.60;;;;;;5058450;28;20805;-74
2022/05/31 11:02:48;;;;;;;2.00;1.90;;;35.90;52.70;;;;;;5056144;28;20217;-74
2022/05/31 11:05:17;;;;;;;2.05;1.85;;;36.50;51.10;;;;;;5057716;28;20573;-74
2022/05/31 11:11:28;;;;;;;1.80;1.70;;;36.80;51.30;;;;;;5054353;28;20187;-74
2022/05/31 11:14:12;;;;;;;2.47;1.50;;;36.80;49.90;;;;;;5055186;28;20205;-74
2022/05/31 11:16:49;;;;;;;1.83;1.73;;;37.10;48.70;;;;;;5056615;28;20638;-74
2022/05/31 11:19:21;;;;;;;2.88;1.70;;;37.50;48.80;;;;;;5062576;28;20714;-74
2022/05/31 11:22:10;;;;;;;1.30;1.30;;;37.90;48.30;;;;;;5080718;28;20202;-74
2022/05/31 11:24:46;;;;;;;2.35;1.45;;;38.50;46.10;;;;;;5058113;28;21161;-74
2022/05/31 11:27:37;;;;;;;1.95;1.25;;;38.50;45.50;;;;;;5055277;28;20277;-74
2022/05/31 11:30:16;;;;;;;3.97;1.10;;;38.70;45.80;;;;;;5056244;28;20186;-74
2022/05/31 11:32:51;;;;;;;1.58;1.30;;;38.90;45.80;;;;;;5055120;28;20186;-74
2022/05/31 11:35:35;;;;;;;1.75;1.40;;;39.10;46.50;;;;;;5057053;28;20667;-73
2022/05/31 11:38:19;;;;;;;1.75;1.00;;;39.20;46.00;;;;;;5058108;28;20202;-73
2022/05/31 11:41:04;;;;;;;2.70;0.93;;;39.10;45.10;;;;;;5057449;28;20211;-73
2022/05/31 11:44:10;;;;;;;1.13;1.00;;;38.90;43.50;;;;;;5056798;28;20280;-73
2022/05/31 11:46:58;;;;;;;1.20;1.20;;;38.70;43.80;;;;;;5033001;28;20214;-73
2022/05/31 11:49:43;;;;;;;1.23;1.23;;;38.70;44.70;;;;;;5037194;28;20242;-74
2022/05/31 11:52:17;;;;;;;1.08;1.08;;;38.70;44.70;;;;;;5038107;28;20194;-74
2022/05/31 11:55:25;;;;;;;1.10;1.10;;;38.50;45.90;;;;;;5036868;28;20193;-74
2022/05/31 11:58:19;;;;;;;0.90;0.90;;;38.40;46.00;;;;;;5035684;28;20191;-75
2022/05/31 12:01:06;;;;;;;4.80;0.90;;;38.20;44.50;;;;;;5041367;28;20186;-74
2022/05/31 12:03:40;;;;;;;3.38;1.15;;;37.80;45.80;;;;;;5040629;28;20226;-74
2022/05/31 12:06:27;;;;;;;1.70;1.45;;;37.70;46.60;;;;;;5040107;28;20183;-74
2022/05/31 12:09:03;;;;;;;1.13;1.00;;;37.80;46.40;;;;;;5041483;28;20230;-74
2022/05/31 12:11:43;;;;;;;4.40;1.45;;;37.90;45.90;;;;;;5038856;28;20268;-74
2022/05/31 12:14:11;;;;;;;2.47;1.15;;;38.00;46.70;;;;;;5041874;28;20182;-76
2022/05/31 12:16:37;;;;;;;1.25;1.25;;;38.20;46.20;;;;;;5028433;28;20736;-74
2022/05/31 12:19:16;;;;;;;2.00;1.38;;;38.20;47.80;;;;;;5043489;28;20260;-74
2022/05/31 12:21:55;;;;;;;1.30;1.08;;;38.30;45.70;;;;;;5041212;28;20609;-74
2022/05/31 12:24:27;;;;;;;2.58;0.90;;;38.50;44.90;;;;;;5063074;28;20924;-74
2022/05/31 12:27:10;;;;;;;4.20;1.20;;;38.60;46.30;;;;;;5068467;28;20200;-74
2022/05/31 12:30:07;;;;;;;1.42;1.10;;;38.70;45.40;;;;;;5060287;28;20190;-74
2022/05/31 12:32:35;;;;;;;1.67;1.20;;;38.90;44.70;;;;;;5051151;28;20818;-74
2022/05/31 12:35:04;;;;;;;1.13;1.13;;;39.00;46.00;;;;;;5049080;28;20195;-74
2022/05/31 12:37:49;;;;;;;1.17;1.05;;;39.00;44.90;;;;;;5057572;28;20198;-74
2022/05/31 12:40:24;;;;;;;5.85;1.13;;;39.30;45.50;;;;;;5043235;28;20183;-74
2022/05/31 12:42:50;;;;;;;0.98;0.98;;;39.60;43.80;;;;;;5056830;28;20229;-74
2022/05/31 12:45:40;;;;;;;2.90;0.80;;;39.70;44.80;;;;;;5051128;28;20243;-74
2022/05/31 12:48:15;;;;;;;1.05;1.05;;;39.70;44.30;;;;;;5033118;28;20297;-74
2022/05/31 12:50:48;;;;;;;1.10;0.90;;;39.50;43.50;;;;;;5056014;28;20198;-74
2022/05/31 12:53:19;;;;;;;2.30;1.08;;;39.60;44.40;;;;;;5054525;28;20194;-74
2022/05/31 12:55:45;;;;;;;1.48;1.00;;;39.40;43.80;;;;;;5042528;28;20199;-74
2022/05/31 12:58:29;;;;;;;1.10;1.10;;;39.50;44.80;;;;;;5053753;28;20179;-74
2022/05/31 13:01:07;;;;;;;1.95;1.10;;;39.50;44.80;;;;;;5043593;28;20616;-74
2022/05/31 13:03:33;;;;;;;1.30;1.30;;;40.00;44.20;;;;;;5053263;28;20236;-74
2022/05/31 13:06:09;;;;;;;1.00;0.88;;;40.50;44.30;;;;;;5056816;28;20191;-75
2022/05/31 13:09:01;;;;;;;2.78;1.02;;;41.70;43.50;;;;;;5036459;28;20201;-74
2022/05/31 13:20:26;;;;;;;1.02;0.98;;;42.20;42.40;;;;;;5064777;28;20690;-76
2022/05/31 13:23:06;;;;;;;2.25;1.33;;;40.70;42.70;;;;;;5059322;28;20218;-75
2022/05/31 13:26:06;;;;;;;1.20;0.90;;;39.80;43.70;;;;;;5057872;28;20189;-76
2022/05/31 13:28:41;;;;;;;1.38;1.25;;;38.90;44.40;;;;;;5067106;28;20181;-76
2022/05/31 13:31:14;;;;;;;2.88;0.73;;;37.90;45.20;;;;;;5065992;28;20185;-75
2022/05/31 13:33:40;;;;;;;0.82;0.82;;;37.10;47.40;;;;;;5066468;28;20216;-75
2022/05/31 13:36:16;;;;;;;1.40;1.15;;;36.60;46.90;;;;;;5064019;28;20716;-75
2022/05/31 13:38:45;;;;;;;1.10;1.00;;;36.00;47.90;;;;;;5065154;28;20218;-75
2022/05/31 13:41:14;;;;;;;1.00;1.00;;;35.40;47.30;;;;;;5064097;28;20186;-76
2022/05/31 13:43:44;;;;;;;1.38;0.98;;;35.00;48.10;;;;;;5064143;28;20218;-75
2022/05/31 13:46:30;;;;;;;5.38;1.10;;;34.90;48.90;;;;;;5064298;28;20185;-75